sensor_id;sensor_type;location;lat;lon;timestamp;P1;durP1;ratioP1;P2;durP2;ratioP2
50739;SDS011;36704;52.524;17.580;2022-07-29T00:01:30;10.70;;;4.85;;
50739;SDS011;36704;52.524;17.580;2022-07-29T00:04:15;16.42;;;6.03;;
50739;SDS011;36704;52.524;17.580;2022-07-29T00:07:04;10.15;;;5.40;;
50739;SDS011;36704;52.524;17.580;2022-07-29T00:09:52;8.63;;;5.00;;
50739;SDS011;36704;52.524;17.580;2022-07-29T00:12:41;13.15;;;5.88;;
50739;SDS011;36704;52.524;17.580;2022-07-29T00:15:28;11.02;;;5.88;;
50739;SDS011;36704;52.524;17.580;2022-07-29T00:18:14;13.68;;;5.28;;
50739;SDS011;36704;52.524;17.580;2022-07-29T00:21:00;12.70;;;5.70;;
50739;SDS011;36704;52.524;17.580;2022-07-29T00:23:46;12.60;;;5.85;;
50739;SDS011;36704;52.524;17.580;2022-07-29T00:26:32;11.45;;;4.95;;
50739;SDS011;36704;52.524;17.580;2022-07-29T00:29:19;8.82;;;4.85;;
50739;SDS011;36704;52.524;17.580;2022-07-29T00:32:21;10.05;;;4.93;;
50739;SDS011;36704;52.524;17.580;2022-07-29T00:35:07;14.88;;;5.75;;
50739;SDS011;36704;52.524;17.580;2022-07-29T00:38:12;11.60;;;4.80;;
50739;SDS011;36704;52.524;17.580;2022-07-29T00:41:00;10.30;;;5.00;;
50739;SDS011;36704;52.524;17.580;2022-07-29T00:43:46;11.80;;;5.25;;
50739;SDS011;36704;52.524;17.580;2022-07-29T00:46:33;12.18;;;5.68;;
50739;SDS011;36704;52.524;17.580;2022-07-29T00:49:24;13.70;;;5.82;;
50739;SDS011;36704;52.524;17.580;2022-07-29T00:52:13;12.00;;;6.00;;
50739;SDS011;36704;52.524;17.580;2022-07-29T00:55:03;11.43;;;7.15;;
50739;SDS011;36704;52.524;17.580;2022-07-29T00:57:54;16.50;;;7.40;;
50739;SDS011;36704;52.524;17.580;2022-07-29T01:00:40;16.92;;;7.30;;
50739;SDS011;36704;52.524;17.580;2022-07-29T01:03:27;10.05;;;6.10;;
50739;SDS011;36704;52.524;17.580;2022-07-29T01:06:13;10.93;;;6.75;;
50739;SDS011;36704;52.524;17.580;2022-07-29T01:09:01;14.80;;;6.60;;
50739;SDS011;36704;52.524;17.580;2022-07-29T01:11:48;12.77;;;6.93;;
50739;SDS011;36704;52.524;17.580;2022-07-29T01:14:35;10.30;;;6.78;;
50739;SDS011;36704;52.524;17.580;2022-07-29T01:30:02;12.07;;;6.88;;
50739;SDS011;36704;52.524;17.580;2022-07-29T01:32:50;12.70;;;7.05;;
50739;SDS011;36704;52.524;17.580;2022-07-29T01:35:40;12.75;;;7.10;;
50739;SDS011;36704;52.524;17.580;2022-07-29T01:38:32;10.93;;;6.30;;
50739;SDS011;36704;52.524;17.580;2022-07-29T01:41:20;12.98;;;6.80;;
50739;SDS011;36704;52.524;17.580;2022-07-29T01:44:11;10.85;;;6.30;;
50739;SDS011;36704;52.524;17.580;2022-07-29T01:47:01;11.85;;;6.55;;
50739;SDS011;36704;52.524;17.580;2022-07-29T01:49:51;9.38;;;7.05;;
50739;SDS011;36704;52.524;17.580;2022-07-29T01:52:39;10.18;;;5.80;;
50739;SDS011;36704;52.524;17.580;2022-07-29T01:55:38;13.45;;;6.80;;
50739;SDS011;36704;52.524;17.580;2022-07-29T01:58:26;9.70;;;6.15;;
50739;SDS011;36704;52.524;17.580;2022-07-29T02:01:14;13.40;;;6.20;;
50739;SDS011;36704;52.524;17.580;2022-07-29T02:04:05;19.67;;;6.93;;
50739;SDS011;36704;52.524;17.580;2022-07-29T02:06:53;11.75;;;6.40;;
50739;SDS011;36704;52.524;17.580;2022-07-29T02:09:46;11.93;;;6.50;;
50739;SDS011;36704;52.524;17.580;2022-07-29T02:12:33;16.27;;;6.80;;
50739;SDS011;36704;52.524;17.580;2022-07-29T02:15:22;8.00;;;5.78;;
50739;SDS011;36704;52.524;17.580;2022-07-29T02:18:14;12.52;;;6.70;;
50739;SDS011;36704;52.524;17.580;2022-07-29T02:21:03;10.55;;;6.18;;
50739;SDS011;36704;52.524;17.580;2022-07-29T02:24:00;12.20;;;5.97;;
50739;SDS011;36704;52.524;17.580;2022-07-29T02:26:49;10.38;;;4.93;;
50739;SDS011;36704;52.524;17.580;2022-07-29T02:29:35;9.57;;;5.82;;
50739;SDS011;36704;52.524;17.580;2022-07-29T02:32:27;10.93;;;5.88;;
50739;SDS011;36704;52.524;17.580;2022-07-29T02:35:15;10.73;;;5.47;;
50739;SDS011;36704;52.524;17.580;2022-07-29T02:38:02;10.88;;;5.60;;
50739;SDS011;36704;52.524;17.580;2022-07-29T02:41:09;9.55;;;5.10;;
50739;SDS011;36704;52.524;17.580;2022-07-29T02:43:59;10.95;;;4.95;;
50739;SDS011;36704;52.524;17.580;2022-07-29T02:46:55;13.77;;;5.03;;
50739;SDS011;36704;52.524;17.580;2022-07-29T02:49:52;11.88;;;4.90;;
50739;SDS011;36704;52.524;17.580;2022-07-29T02:55:33;8.63;;;4.57;;
50739;SDS011;36704;52.524;17.580;2022-07-29T03:01:19;11.15;;;4.75;;
50739;SDS011;36704;52.524;17.580;2022-07-29T03:04:08;8.88;;;4.70;;
50739;SDS011;36704;52.524;17.580;2022-07-29T03:06:57;10.25;;;4.63;;
50739;SDS011;36704;52.524;17.580;2022-07-29T03:09:45;12.45;;;4.13;;
50739;SDS011;36704;52.524;17.580;2022-07-29T03:12:32;11.05;;;4.90;;
50739;SDS011;36704;52.524;17.580;2022-07-29T03:15:18;10.77;;;4.45;;
50739;SDS011;36704;52.524;17.580;2022-07-29T03:18:09;10.18;;;4.75;;
50739;SDS011;36704;52.524;17.580;2022-07-29T03:20:55;12.40;;;4.78;;
50739;SDS011;36704;52.524;17.580;2022-07-29T03:23:45;12.23;;;4.88;;
50739;SDS011;36704;52.524;17.580;2022-07-29T03:26:32;8.55;;;4.70;;
50739;SDS011;36704;52.524;17.580;2022-07-29T03:29:17;9.02;;;4.40;;
50739;SDS011;36704;52.524;17.580;2022-07-29T03:32:05;6.90;;;4.32;;
50739;SDS011;36704;52.524;17.580;2022-07-29T03:34:53;7.85;;;3.88;;
50739;SDS011;36704;52.524;17.580;2022-07-29T03:37:39;8.45;;;4.65;;
50739;SDS011;36704;52.524;17.580;2022-07-29T03:40:26;6.78;;;3.90;;
50739;SDS011;36704;52.524;17.580;2022-07-29T03:43:18;8.05;;;3.90;;
50739;SDS011;36704;52.524;17.580;2022-07-29T03:46:08;11.13;;;4.00;;
50739;SDS011;36704;52.524;17.580;2022-07-29T03:48:58;10.65;;;4.18;;
50739;SDS011;36704;52.524;17.580;2022-07-29T03:51:46;11.27;;;4.13;;
50739;SDS011;36704;52.524;17.580;2022-07-29T03:54:31;6.90;;;3.67;;
50739;SDS011;36704;52.524;17.580;2022-07-29T03:57:18;9.77;;;3.90;;
50739;SDS011;36704;52.524;17.580;2022-07-29T04:00:10;6.93;;;3.83;;
50739;SDS011;36704;52.524;17.580;2022-07-29T04:02:57;6.05;;;3.60;;
50739;SDS011;36704;52.524;17.580;2022-07-29T04:05:44;7.68;;;3.50;;
50739;SDS011;36704;52.524;17.580;2022-07-29T04:08:42;7.53;;;3.40;;
50739;SDS011;36704;52.524;17.580;2022-07-29T04:11:29;6.75;;;3.72;;
50739;SDS011;36704;52.524;17.580;2022-07-29T04:14:15;10.60;;;3.30;;
50739;SDS011;36704;52.524;17.580;2022-07-29T04:17:03;9.60;;;4.35;;
50739;SDS011;36704;52.524;17.580;2022-07-29T04:19:51;6.22;;;3.30;;
50739;SDS011;36704;52.524;17.580;2022-07-29T04:22:37;4.80;;;2.92;;
50739;SDS011;36704;52.524;17.580;2022-07-29T04:25:23;6.47;;;2.88;;
50739;SDS011;36704;52.524;17.580;2022-07-29T04:28:09;4.97;;;2.65;;
50739;SDS011;36704;52.524;17.580;2022-07-29T04:30:56;8.23;;;2.88;;
50739;SDS011;36704;52.524;17.580;2022-07-29T04:33:50;7.63;;;2.40;;
50739;SDS011;36704;52.524;17.580;2022-07-29T04:36:35;5.00;;;2.47;;
50739;SDS011;36704;52.524;17.580;2022-07-29T04:39:22;5.55;;;2.75;;
50739;SDS011;36704;52.524;17.580;2022-07-29T04:42:09;6.72;;;2.75;;
50739;SDS011;36704;52.524;17.580;2022-07-29T04:44:56;6.22;;;2.33;;
50739;SDS011;36704;52.524;17.580;2022-07-29T04:47:46;8.10;;;2.50;;
50739;SDS011;36704;52.524;17.580;2022-07-29T04:50:32;5.82;;;2.80;;
50739;SDS011;36704;52.524;17.580;2022-07-29T04:53:17;6.47;;;2.28;;
50739;SDS011;36704;52.524;17.580;2022-07-29T04:56:05;3.97;;;2.47;;
50739;SDS011;36704;52.524;17.580;2022-07-29T04:58:51;6.25;;;2.50;;
50739;SDS011;36704;52.524;17.580;2022-07-29T05:01:37;5.68;;;2.88;;
50739;SDS011;36704;52.524;17.580;2022-07-29T05:04:23;5.53;;;2.30;;
50739;SDS011;36704;52.524;17.580;2022-07-29T05:07:09;5.38;;;2.60;;
50739;SDS011;36704;52.524;17.580;2022-07-29T05:09:55;3.20;;;2.38;;
50739;SDS011;36704;52.524;17.580;2022-07-29T05:12:42;6.25;;;2.28;;
50739;SDS011;36704;52.524;17.580;2022-07-29T05:15:28;6.95;;;2.38;;
50739;SDS011;36704;52.524;17.580;2022-07-29T05:18:14;7.30;;;2.63;;
50739;SDS011;36704;52.524;17.580;2022-07-29T05:21:01;5.53;;;2.50;;
50739;SDS011;36704;52.524;17.580;2022-07-29T05:23:48;6.70;;;2.45;;
50739;SDS011;36704;52.524;17.580;2022-07-29T05:26:34;5.53;;;2.53;;
50739;SDS011;36704;52.524;17.580;2022-07-29T05:29:20;5.20;;;2.58;;
50739;SDS011;36704;52.524;17.580;2022-07-29T05:32:27;9.02;;;2.30;;
50739;SDS011;36704;52.524;17.580;2022-07-29T05:35:14;7.28;;;2.70;;
50739;SDS011;36704;52.524;17.580;2022-07-29T05:38:01;6.03;;;2.58;;
50739;SDS011;36704;52.524;17.580;2022-07-29T05:40:48;3.65;;;2.20;;
50739;SDS011;36704;52.524;17.580;2022-07-29T05:43:35;7.40;;;2.60;;
50739;SDS011;36704;52.524;17.580;2022-07-29T05:46:23;5.85;;;2.25;;
50739;SDS011;36704;52.524;17.580;2022-07-29T05:49:28;7.07;;;2.60;;
50739;SDS011;36704;52.524;17.580;2022-07-29T05:52:14;6.38;;;2.20;;
50739;SDS011;36704;52.524;17.580;2022-07-29T05:55:02;3.55;;;1.90;;
50739;SDS011;36704;52.524;17.580;2022-07-29T05:57:52;6.63;;;2.30;;
50739;SDS011;36704;52.524;17.580;2022-07-29T06:00:37;6.32;;;2.50;;
50739;SDS011;36704;52.524;17.580;2022-07-29T06:03:23;3.42;;;2.25;;
50739;SDS011;36704;52.524;17.580;2022-07-29T06:06:09;4.80;;;2.53;;
50739;SDS011;36704;52.524;17.580;2022-07-29T06:09:09;5.03;;;2.47;;
50739;SDS011;36704;52.524;17.580;2022-07-29T06:11:59;7.57;;;2.30;;
50739;SDS011;36704;52.524;17.580;2022-07-29T06:14:49;2.63;;;1.85;;
50739;SDS011;36704;52.524;17.580;2022-07-29T06:17:40;5.45;;;2.03;;
50739;SDS011;36704;52.524;17.580;2022-07-29T06:20:46;5.18;;;2.00;;
50739;SDS011;36704;52.524;17.580;2022-07-29T06:23:36;8.13;;;2.03;;
50739;SDS011;36704;52.524;17.580;2022-07-29T06:26:29;7.03;;;2.10;;
50739;SDS011;36704;52.524;17.580;2022-07-29T06:29:21;6.32;;;2.30;;
50739;SDS011;36704;52.524;17.580;2022-07-29T06:32:07;6.55;;;2.25;;
50739;SDS011;36704;52.524;17.580;2022-07-29T06:34:54;4.18;;;1.75;;
50739;SDS011;36704;52.524;17.580;2022-07-29T06:38:02;8.27;;;2.97;;
50739;SDS011;36704;52.524;17.580;2022-07-29T06:41:12;4.95;;;2.60;;
50739;SDS011;36704;52.524;17.580;2022-07-29T06:44:09;9.15;;;2.38;;
50739;SDS011;36704;52.524;17.580;2022-07-29T06:47:08;4.03;;;1.83;;
50739;SDS011;36704;52.524;17.580;2022-07-29T06:49:55;6.43;;;2.00;;
50739;SDS011;36704;52.524;17.580;2022-07-29T06:52:48;5.10;;;1.88;;
50739;SDS011;36704;52.524;17.580;2022-07-29T06:55:36;5.28;;;2.50;;
50739;SDS011;36704;52.524;17.580;2022-07-29T06:58:24;3.13;;;1.70;;
50739;SDS011;36704;52.524;17.580;2022-07-29T07:01:14;5.18;;;2.38;;
50739;SDS011;36704;52.524;17.580;2022-07-29T07:04:01;3.75;;;1.55;;
50739;SDS011;36704;52.524;17.580;2022-07-29T07:06:48;6.20;;;2.00;;
50739;SDS011;36704;52.524;17.580;2022-07-29T07:09:34;3.88;;;2.08;;
50739;SDS011;36704;52.524;17.580;2022-07-29T07:12:25;2.90;;;1.73;;
50739;SDS011;36704;52.524;17.580;2022-07-29T07:15:13;10.55;;;2.67;;
50739;SDS011;36704;52.524;17.580;2022-07-29T07:18:01;6.70;;;2.30;;
50739;SDS011;36704;52.524;17.580;2022-07-29T07:20:48;8.18;;;2.42;;
50739;SDS011;36704;52.524;17.580;2022-07-29T07:23:37;7.38;;;2.20;;
50739;SDS011;36704;52.524;17.580;2022-07-29T07:26:26;2.47;;;1.57;;
50739;SDS011;36704;52.524;17.580;2022-07-29T07:29:15;6.60;;;1.98;;
50739;SDS011;36704;52.524;17.580;2022-07-29T07:32:02;4.15;;;1.98;;
50739;SDS011;36704;52.524;17.580;2022-07-29T07:34:49;3.83;;;1.50;;
50739;SDS011;36704;52.524;17.580;2022-07-29T07:37:35;3.13;;;1.63;;
50739;SDS011;36704;52.524;17.580;2022-07-29T07:40:22;5.07;;;1.38;;
50739;SDS011;36704;52.524;17.580;2022-07-29T07:43:08;5.40;;;2.08;;
50739;SDS011;36704;52.524;17.580;2022-07-29T07:45:54;6.05;;;1.77;;
50739;SDS011;36704;52.524;17.580;2022-07-29T07:48:40;5.47;;;1.95;;
50739;SDS011;36704;52.524;17.580;2022-07-29T07:51:26;9.80;;;1.70;;
50739;SDS011;36704;52.524;17.580;2022-07-29T07:54:12;8.60;;;2.28;;
50739;SDS011;36704;52.524;17.580;2022-07-29T07:56:58;5.88;;;1.80;;
50739;SDS011;36704;52.524;17.580;2022-07-29T07:59:46;7.47;;;1.58;;
50739;SDS011;36704;52.524;17.580;2022-07-29T08:02:34;2.75;;;1.50;;
50739;SDS011;36704;52.524;17.580;2022-07-29T08:05:20;4.05;;;1.73;;
50739;SDS011;36704;52.524;17.580;2022-07-29T08:08:06;3.63;;;1.95;;
50739;SDS011;36704;52.524;17.580;2022-07-29T08:10:52;3.65;;;1.55;;
50739;SDS011;36704;52.524;17.580;2022-07-29T08:13:38;6.93;;;1.67;;
50739;SDS011;36704;52.524;17.580;2022-07-29T08:16:24;2.30;;;1.35;;
50739;SDS011;36704;52.524;17.580;2022-07-29T08:19:11;3.05;;;1.65;;
50739;SDS011;36704;52.524;17.580;2022-07-29T08:21:58;5.20;;;1.70;;
50739;SDS011;36704;52.524;17.580;2022-07-29T08:24:45;3.15;;;1.23;;
50739;SDS011;36704;52.524;17.580;2022-07-29T08:27:49;3.20;;;1.40;;
50739;SDS011;36704;52.524;17.580;2022-07-29T08:30:35;2.38;;;1.45;;
50739;SDS011;36704;52.524;17.580;2022-07-29T08:33:21;2.50;;;1.50;;
50739;SDS011;36704;52.524;17.580;2022-07-29T08:36:07;1.63;;;1.20;;
50739;SDS011;36704;52.524;17.580;2022-07-29T08:38:53;2.85;;;1.38;;
50739;SDS011;36704;52.524;17.580;2022-07-29T08:41:40;12.07;;;1.40;;
50739;SDS011;36704;52.524;17.580;2022-07-29T08:44:41;6.82;;;1.40;;
50739;SDS011;36704;52.524;17.580;2022-07-29T08:47:30;2.35;;;1.27;;
50739;SDS011;36704;52.524;17.580;2022-07-29T08:50:18;10.52;;;1.65;;
50739;SDS011;36704;52.524;17.580;2022-07-29T08:53:05;2.80;;;1.52;;
50739;SDS011;36704;52.524;17.580;2022-07-29T08:55:53;11.40;;;1.55;;
50739;SDS011;36704;52.524;17.580;2022-07-29T08:58:40;4.07;;;1.20;;
50739;SDS011;36704;52.524;17.580;2022-07-29T09:01:32;6.57;;;1.30;;
50739;SDS011;36704;52.524;17.580;2022-07-29T09:04:29;3.95;;;1.30;;
50739;SDS011;36704;52.524;17.580;2022-07-29T09:07:18;4.10;;;1.33;;
50739;SDS011;36704;52.524;17.580;2022-07-29T09:10:05;4.40;;;1.30;;
50739;SDS011;36704;52.524;17.580;2022-07-29T09:12:51;6.22;;;1.65;;
50739;SDS011;36704;52.524;17.580;2022-07-29T09:15:38;4.90;;;1.38;;
50739;SDS011;36704;52.524;17.580;2022-07-29T09:18:41;2.83;;;1.20;;
50739;SDS011;36704;52.524;17.580;2022-07-29T09:21:33;4.43;;;1.50;;
50739;SDS011;36704;52.524;17.580;2022-07-29T09:24:44;4.55;;;1.98;;
50739;SDS011;36704;52.524;17.580;2022-07-29T09:27:33;5.43;;;1.60;;
50739;SDS011;36704;52.524;17.580;2022-07-29T09:30:20;6.90;;;1.50;;
50739;SDS011;36704;52.524;17.580;2022-07-29T09:33:16;3.03;;;1.13;;
50739;SDS011;36704;52.524;17.580;2022-07-29T09:36:03;6.80;;;1.50;;
50739;SDS011;36704;52.524;17.580;2022-07-29T09:38:58;5.80;;;1.50;;
50739;SDS011;36704;52.524;17.580;2022-07-29T09:41:49;5.05;;;1.40;;
50739;SDS011;36704;52.524;17.580;2022-07-29T09:44:45;6.05;;;1.70;;
50739;SDS011;36704;52.524;17.580;2022-07-29T09:47:46;7.95;;;1.30;;
50739;SDS011;36704;52.524;17.580;2022-07-29T09:50:35;2.95;;;1.33;;
50739;SDS011;36704;52.524;17.580;2022-07-29T09:53:35;6.35;;;1.52;;
50739;SDS011;36704;52.524;17.580;2022-07-29T09:56:38;4.30;;;1.48;;
50739;SDS011;36704;52.524;17.580;2022-07-29T09:59:25;2.63;;;1.40;;
50739;SDS011;36704;52.524;17.580;2022-07-29T10:02:12;5.50;;;1.50;;
50739;SDS011;36704;52.524;17.580;2022-07-29T10:05:16;4.22;;;1.70;;
50739;SDS011;36704;52.524;17.580;2022-07-29T10:08:06;3.42;;;1.48;;
50739;SDS011;36704;52.524;17.580;2022-07-29T10:11:03;4.45;;;1.60;;
50739;SDS011;36704;52.524;17.580;2022-07-29T10:13:55;3.58;;;1.25;;
50739;SDS011;36704;52.524;17.580;2022-07-29T10:16:41;3.70;;;1.10;;
50739;SDS011;36704;52.524;17.580;2022-07-29T10:19:31;3.85;;;1.35;;
50739;SDS011;36704;52.524;17.580;2022-07-29T10:22:16;4.95;;;1.50;;
50739;SDS011;36704;52.524;17.580;2022-07-29T10:25:23;5.88;;;1.70;;
50739;SDS011;36704;52.524;17.580;2022-07-29T10:28:11;7.47;;;1.20;;
50739;SDS011;36704;52.524;17.580;2022-07-29T10:31:02;3.60;;;1.80;;
50739;SDS011;36704;52.524;17.580;2022-07-29T10:40:36;3.38;;;1.23;;
50739;SDS011;36704;52.524;17.580;2022-07-29T10:43:46;5.68;;;1.60;;
50739;SDS011;36704;52.524;17.580;2022-07-29T10:46:37;3.65;;;1.52;;
50739;SDS011;36704;52.524;17.580;2022-07-29T10:49:26;3.10;;;1.67;;
50739;SDS011;36704;52.524;17.580;2022-07-29T10:52:52;4.43;;;1.63;;
50739;SDS011;36704;52.524;17.580;2022-07-29T10:55:44;4.88;;;1.52;;
50739;SDS011;36704;52.524;17.580;2022-07-29T10:58:32;4.57;;;1.50;;
50739;SDS011;36704;52.524;17.580;2022-07-29T11:01:29;8.02;;;1.75;;
50739;SDS011;36704;52.524;17.580;2022-07-29T11:07:32;3.85;;;1.58;;
50739;SDS011;36704;52.524;17.580;2022-07-29T11:10:31;4.35;;;2.05;;
50739;SDS011;36704;52.524;17.580;2022-07-29T11:23:28;6.63;;;1.50;;
50739;SDS011;36704;52.524;17.580;2022-07-29T11:26:19;3.67;;;1.55;;
50739;SDS011;36704;52.524;17.580;2022-07-29T11:29:20;4.13;;;1.50;;
50739;SDS011;36704;52.524;17.580;2022-07-29T11:32:12;3.63;;;1.30;;
50739;SDS011;36704;52.524;17.580;2022-07-29T11:35:17;1.95;;;1.10;;
50739;SDS011;36704;52.524;17.580;2022-07-29T11:38:25;4.55;;;1.80;;
50739;SDS011;36704;52.524;17.580;2022-07-29T11:41:23;4.27;;;1.77;;
50739;SDS011;36704;52.524;17.580;2022-07-29T11:44:11;5.65;;;2.15;;
50739;SDS011;36704;52.524;17.580;2022-07-29T11:47:07;8.75;;;1.98;;
50739;SDS011;36704;52.524;17.580;2022-07-29T11:49:57;4.93;;;1.25;;
50739;SDS011;36704;52.524;17.580;2022-07-29T11:52:45;14.00;;;2.90;;
50739;SDS011;36704;52.524;17.580;2022-07-29T11:55:54;6.78;;;1.60;;
50739;SDS011;36704;52.524;17.580;2022-07-29T11:58:42;5.13;;;1.75;;
50739;SDS011;36704;52.524;17.580;2022-07-29T12:01:28;4.38;;;1.42;;
50739;SDS011;36704;52.524;17.580;2022-07-29T12:04:17;7.25;;;2.47;;
50739;SDS011;36704;52.524;17.580;2022-07-29T12:07:04;9.75;;;2.05;;
50739;SDS011;36704;52.524;17.580;2022-07-29T12:09:55;5.03;;;1.75;;
50739;SDS011;36704;52.524;17.580;2022-07-29T12:12:41;6.82;;;1.45;;
50739;SDS011;36704;52.524;17.580;2022-07-29T12:15:27;3.40;;;1.13;;
50739;SDS011;36704;52.524;17.580;2022-07-29T12:18:31;2.97;;;1.23;;
50739;SDS011;36704;52.524;17.580;2022-07-29T12:21:18;3.65;;;1.27;;
50739;SDS011;36704;52.524;17.580;2022-07-29T12:24:11;3.70;;;1.23;;
50739;SDS011;36704;52.524;17.580;2022-07-29T12:26:58;5.18;;;1.52;;
50739;SDS011;36704;52.524;17.580;2022-07-29T12:29:56;2.55;;;1.20;;
50739;SDS011;36704;52.524;17.580;2022-07-29T12:32:44;4.20;;;1.50;;
50739;SDS011;36704;52.524;17.580;2022-07-29T12:35:34;4.43;;;1.35;;
50739;SDS011;36704;52.524;17.580;2022-07-29T12:38:22;4.53;;;1.13;;
50739;SDS011;36704;52.524;17.580;2022-07-29T12:41:08;11.18;;;1.55;;
50739;SDS011;36704;52.524;17.580;2022-07-29T12:43:55;3.33;;;1.50;;
50739;SDS011;36704;52.524;17.580;2022-07-29T12:46:42;12.85;;;2.53;;
50739;SDS011;36704;52.524;17.580;2022-07-29T12:49:28;7.00;;;1.50;;
50739;SDS011;36704;52.524;17.580;2022-07-29T12:52:29;4.03;;;1.50;;
50739;SDS011;36704;52.524;17.580;2022-07-29T12:58:33;12.23;;;3.65;;
50739;SDS011;36704;52.524;17.580;2022-07-29T13:01:23;10.32;;;3.35;;
50739;SDS011;36704;52.524;17.580;2022-07-29T13:04:09;9.70;;;3.28;;
50739;SDS011;36704;52.524;17.580;2022-07-29T13:09:50;3.55;;;1.50;;
50739;SDS011;36704;52.524;17.580;2022-07-29T13:12:36;3.70;;;1.30;;
50739;SDS011;36704;52.524;17.580;2022-07-29T13:15:23;8.45;;;2.00;;
50739;SDS011;36704;52.524;17.580;2022-07-29T13:21:18;4.20;;;1.50;;
50739;SDS011;36704;52.524;17.580;2022-07-29T13:24:07;4.85;;;1.45;;
50739;SDS011;36704;52.524;17.580;2022-07-29T13:26:54;3.97;;;1.48;;
50739;SDS011;36704;52.524;17.580;2022-07-29T13:29:40;4.25;;;1.65;;
50739;SDS011;36704;52.524;17.580;2022-07-29T13:32:28;3.35;;;1.38;;
50739;SDS011;36704;52.524;17.580;2022-07-29T13:35:14;3.75;;;1.70;;
50739;SDS011;36704;52.524;17.580;2022-07-29T13:38:01;8.00;;;1.85;;
50739;SDS011;36704;52.524;17.580;2022-07-29T13:40:47;5.15;;;1.50;;
50739;SDS011;36704;52.524;17.580;2022-07-29T13:43:34;4.55;;;1.40;;
50739;SDS011;36704;52.524;17.580;2022-07-29T13:46:21;5.43;;;1.65;;
50739;SDS011;36704;52.524;17.580;2022-07-29T13:49:08;3.15;;;1.20;;
50739;SDS011;36704;52.524;17.580;2022-07-29T13:51:57;4.50;;;1.80;;
50739;SDS011;36704;52.524;17.580;2022-07-29T13:54:45;4.00;;;1.25;;
50739;SDS011;36704;52.524;17.580;2022-07-29T13:57:32;4.80;;;1.45;;
50739;SDS011;36704;52.524;17.580;2022-07-29T14:00:19;4.57;;;1.40;;
50739;SDS011;36704;52.524;17.580;2022-07-29T14:03:04;3.53;;;1.40;;
50739;SDS011;36704;52.524;17.580;2022-07-29T14:05:52;1.85;;;1.30;;
50739;SDS011;36704;52.524;17.580;2022-07-29T14:08:39;6.70;;;1.50;;
50739;SDS011;36704;52.524;17.580;2022-07-29T14:11:26;4.53;;;1.50;;
50739;SDS011;36704;52.524;17.580;2022-07-29T14:14:11;3.05;;;1.42;;
50739;SDS011;36704;52.524;17.580;2022-07-29T14:16:58;3.95;;;1.33;;
50739;SDS011;36704;52.524;17.580;2022-07-29T14:19:44;4.15;;;1.60;;
50739;SDS011;36704;52.524;17.580;2022-07-29T14:22:30;3.97;;;1.40;;
50739;SDS011;36704;52.524;17.580;2022-07-29T14:25:16;4.38;;;2.05;;
50739;SDS011;36704;52.524;17.580;2022-07-29T14:28:05;3.30;;;1.48;;
50739;SDS011;36704;52.524;17.580;2022-07-29T14:30:51;7.45;;;1.48;;
50739;SDS011;36704;52.524;17.580;2022-07-29T14:33:37;4.55;;;1.85;;
50739;SDS011;36704;52.524;17.580;2022-07-29T14:36:24;5.60;;;1.52;;
50739;SDS011;36704;52.524;17.580;2022-07-29T14:39:10;3.88;;;1.85;;
50739;SDS011;36704;52.524;17.580;2022-07-29T14:41:56;5.50;;;1.73;;
50739;SDS011;36704;52.524;17.580;2022-07-29T14:44:44;8.07;;;2.40;;
50739;SDS011;36704;52.524;17.580;2022-07-29T14:47:31;16.25;;;1.60;;
50739;SDS011;36704;52.524;17.580;2022-07-29T14:50:20;4.05;;;1.80;;
50739;SDS011;36704;52.524;17.580;2022-07-29T14:53:16;3.90;;;1.75;;
50739;SDS011;36704;52.524;17.580;2022-07-29T14:56:03;10.63;;;2.30;;
50739;SDS011;36704;52.524;17.580;2022-07-29T14:59:11;4.55;;;1.70;;
50739;SDS011;36704;52.524;17.580;2022-07-29T15:01:58;3.67;;;1.50;;
50739;SDS011;36704;52.524;17.580;2022-07-29T15:04:46;6.00;;;1.60;;
50739;SDS011;36704;52.524;17.580;2022-07-29T15:07:35;6.78;;;1.70;;
50739;SDS011;36704;52.524;17.580;2022-07-29T15:10:22;4.78;;;1.90;;
50739;SDS011;36704;52.524;17.580;2022-07-29T15:13:15;3.95;;;1.60;;
50739;SDS011;36704;52.524;17.580;2022-07-29T15:16:02;4.03;;;1.58;;
50739;SDS011;36704;52.524;17.580;2022-07-29T15:18:49;6.30;;;1.70;;
50739;SDS011;36704;52.524;17.580;2022-07-29T15:21:39;4.28;;;1.48;;
50739;SDS011;36704;52.524;17.580;2022-07-29T15:24:34;3.53;;;1.30;;
50739;SDS011;36704;52.524;17.580;2022-07-29T15:27:21;7.78;;;2.05;;
50739;SDS011;36704;52.524;17.580;2022-07-29T15:30:09;3.55;;;1.40;;
50739;SDS011;36704;52.524;17.580;2022-07-29T15:33:15;2.70;;;1.02;;
50739;SDS011;36704;52.524;17.580;2022-07-29T15:36:02;4.28;;;1.63;;
50739;SDS011;36704;52.524;17.580;2022-07-29T15:38:51;2.72;;;1.50;;
50739;SDS011;36704;52.524;17.580;2022-07-29T15:41:39;3.90;;;1.38;;
50739;SDS011;36704;52.524;17.580;2022-07-29T15:44:25;3.47;;;1.77;;
50739;SDS011;36704;52.524;17.580;2022-07-29T15:47:13;3.40;;;1.38;;
50739;SDS011;36704;52.524;17.580;2022-07-29T15:50:06;5.28;;;1.50;;
50739;SDS011;36704;52.524;17.580;2022-07-29T15:52:59;2.42;;;1.50;;
50739;SDS011;36704;52.524;17.580;2022-07-29T15:55:46;4.28;;;1.98;;
50739;SDS011;36704;52.524;17.580;2022-07-29T15:58:33;4.70;;;1.73;;
50739;SDS011;36704;52.524;17.580;2022-07-29T16:01:19;8.40;;;1.70;;
50739;SDS011;36704;52.524;17.580;2022-07-29T16:04:07;3.65;;;1.85;;
50739;SDS011;36704;52.524;17.580;2022-07-29T16:06:53;3.13;;;1.27;;
50739;SDS011;36704;52.524;17.580;2022-07-29T16:09:41;6.75;;;1.60;;
50739;SDS011;36704;52.524;17.580;2022-07-29T16:12:37;10.18;;;2.80;;
50739;SDS011;36704;52.524;17.580;2022-07-29T16:15:28;3.45;;;1.67;;
50739;SDS011;36704;52.524;17.580;2022-07-29T16:18:15;7.85;;;1.90;;
50739;SDS011;36704;52.524;17.580;2022-07-29T16:21:04;3.38;;;1.75;;
50739;SDS011;36704;52.524;17.580;2022-07-29T16:23:51;4.53;;;1.52;;
50739;SDS011;36704;52.524;17.580;2022-07-29T16:26:38;3.78;;;1.77;;
50739;SDS011;36704;52.524;17.580;2022-07-29T16:29:24;5.55;;;1.67;;
50739;SDS011;36704;52.524;17.580;2022-07-29T16:32:11;3.13;;;1.55;;
50739;SDS011;36704;52.524;17.580;2022-07-29T16:35:06;4.53;;;1.98;;
50739;SDS011;36704;52.524;17.580;2022-07-29T16:37:54;7.22;;;2.10;;
50739;SDS011;36704;52.524;17.580;2022-07-29T16:40:42;5.63;;;1.63;;
50739;SDS011;36704;52.524;17.580;2022-07-29T16:43:29;3.03;;;1.65;;
50739;SDS011;36704;52.524;17.580;2022-07-29T16:46:15;6.50;;;2.20;;
50739;SDS011;36704;52.524;17.580;2022-07-29T16:49:05;5.18;;;1.83;;
50739;SDS011;36704;52.524;17.580;2022-07-29T16:51:52;5.63;;;2.00;;
50739;SDS011;36704;52.524;17.580;2022-07-29T16:54:42;5.90;;;1.80;;
50739;SDS011;36704;52.524;17.580;2022-07-29T16:57:30;8.20;;;2.03;;
50739;SDS011;36704;52.524;17.580;2022-07-29T17:00:18;9.20;;;2.10;;
50739;SDS011;36704;52.524;17.580;2022-07-29T17:03:05;4.68;;;1.55;;
50739;SDS011;36704;52.524;17.580;2022-07-29T17:05:53;6.10;;;1.67;;
50739;SDS011;36704;52.524;17.580;2022-07-29T17:08:40;7.15;;;1.92;;
50739;SDS011;36704;52.524;17.580;2022-07-29T17:11:27;5.65;;;1.95;;
50739;SDS011;36704;52.524;17.580;2022-07-29T17:14:34;5.30;;;1.77;;
50739;SDS011;36704;52.524;17.580;2022-07-29T17:17:20;5.03;;;2.30;;
50739;SDS011;36704;52.524;17.580;2022-07-29T17:20:26;3.65;;;1.77;;
50739;SDS011;36704;52.524;17.580;2022-07-29T17:23:14;3.85;;;1.80;;
50739;SDS011;36704;52.524;17.580;2022-07-29T17:26:00;6.00;;;1.73;;
50739;SDS011;36704;52.524;17.580;2022-07-29T17:28:46;2.80;;;1.50;;
50739;SDS011;36704;52.524;17.580;2022-07-29T17:31:35;2.72;;;1.67;;